sensor_id;sensor_type;location;lat;lon;timestamp;P1;durP1;ratioP1;P2;durP2;ratioP2
40322;SDS011;26030;51.164;17.100;2023-04-10T00:03:33;9.20;;;7.40;;
40322;SDS011;26030;51.164;17.100;2023-04-10T00:08:37;7.30;;;6.60;;
40322;SDS011;26030;51.164;17.100;2023-04-10T00:13:41;8.40;;;7.40;;
40322;SDS011;26030;51.164;17.100;2023-04-10T00:18:46;8.00;;;7.30;;
40322;SDS011;26030;51.164;17.100;2023-04-10T00:23:50;7.80;;;7.00;;
40322;SDS011;26030;51.164;17.100;2023-04-10T00:28:54;8.20;;;7.40;;
40322;SDS011;26030;51.164;17.100;2023-04-10T00:33:59;8.60;;;7.50;;
40322;SDS011;26030;51.164;17.100;2023-04-10T00:39:03;7.50;;;6.70;;
40322;SDS011;26030;51.164;17.100;2023-04-10T00:44:07;8.00;;;7.10;;
40322;SDS011;26030;51.164;17.100;2023-04-10T00:49:12;7.00;;;6.40;;
40322;SDS011;26030;51.164;17.100;2023-04-10T00:54:16;9.20;;;7.20;;
40322;SDS011;26030;51.164;17.100;2023-04-10T00:59:22;7.10;;;6.40;;
40322;SDS011;26030;51.164;17.100;2023-04-10T01:04:27;9.40;;;6.50;;
40322;SDS011;26030;51.164;17.100;2023-04-10T01:10:04;7.60;;;6.90;;
40322;SDS011;26030;51.164;17.100;2023-04-10T01:15:14;8.30;;;6.60;;
40322;SDS011;26030;51.164;17.100;2023-04-10T01:20:24;8.00;;;7.20;;
40322;SDS011;26030;51.164;17.100;2023-04-10T01:25:48;8.00;;;6.70;;
40322;SDS011;26030;51.164;17.100;2023-04-10T01:30:58;8.70;;;7.50;;
40322;SDS011;26030;51.164;17.100;2023-04-10T01:36:05;8.20;;;6.90;;
40322;SDS011;26030;51.164;17.100;2023-04-10T01:41:11;10.40;;;7.40;;
40322;SDS011;26030;51.164;17.100;2023-04-10T01:46:21;8.20;;;7.40;;
40322;SDS011;26030;51.164;17.100;2023-04-10T01:51:26;7.30;;;6.60;;
40322;SDS011;26030;51.164;17.100;2023-04-10T01:56:34;8.60;;;7.40;;
40322;SDS011;26030;51.164;17.100;2023-04-10T02:01:38;8.20;;;7.40;;
40322;SDS011;26030;51.164;17.100;2023-04-10T02:07:02;7.60;;;6.70;;
40322;SDS011;26030;51.164;17.100;2023-04-10T02:12:15;8.10;;;7.30;;
40322;SDS011;26030;51.164;17.100;2023-04-10T02:17:25;9.90;;;6.90;;
40322;SDS011;26030;51.164;17.100;2023-04-10T02:22:31;7.50;;;6.80;;
40322;SDS011;26030;51.164;17.100;2023-04-10T02:27:36;7.80;;;7.10;;
40322;SDS011;26030;51.164;17.100;2023-04-10T02:32:41;8.50;;;7.60;;
40322;SDS011;26030;51.164;17.100;2023-04-10T02:37:45;8.00;;;7.10;;
40322;SDS011;26030;51.164;17.100;2023-04-10T02:42:50;7.90;;;7.20;;
40322;SDS011;26030;51.164;17.100;2023-04-10T02:47:54;8.40;;;7.60;;
40322;SDS011;26030;51.164;17.100;2023-04-10T02:52:59;7.60;;;6.80;;
40322;SDS011;26030;51.164;17.100;2023-04-10T02:58:04;8.00;;;7.30;;
40322;SDS011;26030;51.164;17.100;2023-04-10T03:03:08;7.60;;;6.90;;
40322;SDS011;26030;51.164;17.100;2023-04-10T03:08:25;7.70;;;7.00;;
40322;SDS011;26030;51.164;17.100;2023-04-10T03:13:29;7.90;;;7.00;;
40322;SDS011;26030;51.164;17.100;2023-04-10T03:18:34;8.90;;;8.00;;
40322;SDS011;26030;51.164;17.100;2023-04-10T03:23:40;7.80;;;7.10;;
40322;SDS011;26030;51.164;17.100;2023-04-10T03:28:44;7.40;;;6.70;;
40322;SDS011;26030;51.164;17.100;2023-04-10T03:33:48;7.70;;;7.00;;
40322;SDS011;26030;51.164;17.100;2023-04-10T03:38:53;8.40;;;7.10;;
40322;SDS011;26030;51.164;17.100;2023-04-10T03:43:57;7.40;;;6.80;;
40322;SDS011;26030;51.164;17.100;2023-04-10T03:49:01;8.60;;;7.80;;
40322;SDS011;26030;51.164;17.100;2023-04-10T03:54:07;9.30;;;7.10;;
40322;SDS011;26030;51.164;17.100;2023-04-10T03:59:11;8.60;;;7.20;;
40322;SDS011;26030;51.164;17.100;2023-04-10T04:04:16;7.60;;;6.90;;
40322;SDS011;26030;51.164;17.100;2023-04-10T04:09:53;9.10;;;7.80;;
40322;SDS011;26030;51.164;17.100;2023-04-10T04:15:11;8.80;;;8.00;;
40322;SDS011;26030;51.164;17.100;2023-04-10T04:20:24;9.70;;;8.10;;
40322;SDS011;26030;51.164;17.100;2023-04-10T04:25:48;8.50;;;7.70;;
40322;SDS011;26030;51.164;17.100;2023-04-10T04:31:25;7.70;;;6.90;;
40322;SDS011;26030;51.164;17.100;2023-04-10T04:36:53;11.10;;;8.70;;
40322;SDS011;26030;51.164;17.100;2023-04-10T04:42:28;9.10;;;7.90;;
40322;SDS011;26030;51.164;17.100;2023-04-10T04:48:05;9.40;;;8.40;;
40322;SDS011;26030;51.164;17.100;2023-04-10T04:53:27;10.40;;;8.10;;
40322;SDS011;26030;51.164;17.100;2023-04-10T04:59:03;10.10;;;8.80;;
40322;SDS011;26030;51.164;17.100;2023-04-10T05:04:24;9.60;;;8.60;;
40322;SDS011;26030;51.164;17.100;2023-04-10T05:09:33;9.50;;;8.50;;
40322;SDS011;26030;51.164;17.100;2023-04-10T05:14:47;9.90;;;8.30;;
40322;SDS011;26030;51.164;17.100;2023-04-10T05:20:12;8.80;;;8.00;;
40322;SDS011;26030;51.164;17.100;2023-04-10T05:25:31;9.40;;;8.50;;
40322;SDS011;26030;51.164;17.100;2023-04-10T05:30:52;9.60;;;8.10;;
40322;SDS011;26030;51.164;17.100;2023-04-10T05:36:23;9.40;;;8.20;;
40322;SDS011;26030;51.164;17.100;2023-04-10T05:41:59;10.50;;;8.60;;
40322;SDS011;26030;51.164;17.100;2023-04-10T05:47:25;11.80;;;7.80;;
40322;SDS011;26030;51.164;17.100;2023-04-10T05:52:42;8.90;;;8.00;;
40322;SDS011;26030;51.164;17.100;2023-04-10T05:58:19;9.80;;;8.00;;
40322;SDS011;26030;51.164;17.100;2023-04-10T06:03:43;9.30;;;7.40;;
40322;SDS011;26030;51.164;17.100;2023-04-10T06:08:48;9.20;;;8.30;;
40322;SDS011;26030;51.164;17.100;2023-04-10T06:13:53;15.00;;;7.70;;
40322;SDS011;26030;51.164;17.100;2023-04-10T06:19:04;12.90;;;8.30;;
40322;SDS011;26030;51.164;17.100;2023-04-10T06:24:08;16.10;;;8.30;;
40322;SDS011;26030;51.164;17.100;2023-04-10T06:29:15;14.90;;;8.40;;
40322;SDS011;26030;51.164;17.100;2023-04-10T06:34:19;16.30;;;8.60;;
40322;SDS011;26030;51.164;17.100;2023-04-10T06:39:38;21.80;;;9.50;;
40322;SDS011;26030;51.164;17.100;2023-04-10T06:44:42;19.70;;;9.30;;
40322;SDS011;26030;51.164;17.100;2023-04-10T06:49:47;17.90;;;8.50;;
40322;SDS011;26030;51.164;17.100;2023-04-10T06:54:51;19.00;;;8.80;;
40322;SDS011;26030;51.164;17.100;2023-04-10T06:59:55;22.20;;;8.70;;
40322;SDS011;26030;51.164;17.100;2023-04-10T07:05:03;19.90;;;9.20;;
40322;SDS011;26030;51.164;17.100;2023-04-10T07:10:11;13.00;;;8.70;;
40322;SDS011;26030;51.164;17.100;2023-04-10T07:15:16;13.30;;;8.90;;
40322;SDS011;26030;51.164;17.100;2023-04-10T07:20:20;14.80;;;8.30;;
40322;SDS011;26030;51.164;17.100;2023-04-10T07:25:25;16.30;;;8.70;;
40322;SDS011;26030;51.164;17.100;2023-04-10T07:30:29;14.30;;;8.80;;
40322;SDS011;26030;51.164;17.100;2023-04-10T07:35:33;11.50;;;8.80;;
40322;SDS011;26030;51.164;17.100;2023-04-10T07:40:38;12.60;;;8.60;;
40322;SDS011;26030;51.164;17.100;2023-04-10T07:45:42;13.50;;;8.40;;
40322;SDS011;26030;51.164;17.100;2023-04-10T07:50:46;13.70;;;9.30;;
40322;SDS011;26030;51.164;17.100;2023-04-10T07:55:51;14.40;;;8.70;;
40322;SDS011;26030;51.164;17.100;2023-04-10T08:00:56;14.60;;;8.80;;
40322;SDS011;26030;51.164;17.100;2023-04-10T08:06:00;14.00;;;8.60;;
40322;SDS011;26030;51.164;17.100;2023-04-10T08:11:34;19.70;;;8.70;;
40322;SDS011;26030;51.164;17.100;2023-04-10T08:16:41;18.00;;;9.30;;
40322;SDS011;26030;51.164;17.100;2023-04-10T08:21:46;15.30;;;8.50;;
40322;SDS011;26030;51.164;17.100;2023-04-10T08:26:50;18.70;;;9.70;;
40322;SDS011;26030;51.164;17.100;2023-04-10T08:31:54;13.30;;;9.40;;
40322;SDS011;26030;51.164;17.100;2023-04-10T08:36:59;16.30;;;9.30;;
40322;SDS011;26030;51.164;17.100;2023-04-10T08:42:05;12.50;;;9.30;;
40322;SDS011;26030;51.164;17.100;2023-04-10T08:47:12;16.30;;;9.10;;
40322;SDS011;26030;51.164;17.100;2023-04-10T08:52:20;19.20;;;8.90;;
40322;SDS011;26030;51.164;17.100;2023-04-10T08:57:25;10.70;;;9.30;;
40322;SDS011;26030;51.164;17.100;2023-04-10T09:02:32;14.10;;;9.80;;
40322;SDS011;26030;51.164;17.100;2023-04-10T09:07:37;15.30;;;10.00;;
40322;SDS011;26030;51.164;17.100;2023-04-10T09:12:45;11.90;;;9.20;;
40322;SDS011;26030;51.164;17.100;2023-04-10T09:18:01;17.80;;;9.70;;
40322;SDS011;26030;51.164;17.100;2023-04-10T09:23:26;13.00;;;9.50;;
40322;SDS011;26030;51.164;17.100;2023-04-10T09:28:31;19.20;;;10.00;;
40322;SDS011;26030;51.164;17.100;2023-04-10T09:33:35;11.30;;;9.30;;
40322;SDS011;26030;51.164;17.100;2023-04-10T09:38:39;15.00;;;9.40;;
40322;SDS011;26030;51.164;17.100;2023-04-10T09:43:43;17.10;;;9.80;;
40322;SDS011;26030;51.164;17.100;2023-04-10T09:48:55;12.20;;;9.30;;
40322;SDS011;26030;51.164;17.100;2023-04-10T09:54:04;12.50;;;9.10;;
40322;SDS011;26030;51.164;17.100;2023-04-10T09:59:09;11.70;;;9.60;;
40322;SDS011;26030;51.164;17.100;2023-04-10T10:04:14;15.10;;;9.40;;
40322;SDS011;26030;51.164;17.100;2023-04-10T10:09:20;10.80;;;8.80;;
40322;SDS011;26030;51.164;17.100;2023-04-10T10:14:25;17.60;;;9.50;;
40322;SDS011;26030;51.164;17.100;2023-04-10T10:19:46;12.40;;;9.20;;
40322;SDS011;26030;51.164;17.100;2023-04-10T10:24:52;12.60;;;9.60;;
40322;SDS011;26030;51.164;17.100;2023-04-10T10:29:59;17.40;;;10.00;;
40322;SDS011;26030;51.164;17.100;2023-04-10T10:35:18;15.40;;;9.30;;
40322;SDS011;26030;51.164;17.100;2023-04-10T10:40:28;14.00;;;9.00;;
40322;SDS011;26030;51.164;17.100;2023-04-10T10:45:45;13.80;;;8.70;;
40322;SDS011;26030;51.164;17.100;2023-04-10T10:50:51;12.90;;;8.90;;
40322;SDS011;26030;51.164;17.100;2023-04-10T10:55:56;14.50;;;8.80;;
40322;SDS011;26030;51.164;17.100;2023-04-10T11:01:04;22.30;;;9.70;;
40322;SDS011;26030;51.164;17.100;2023-04-10T11:06:20;16.70;;;10.20;;
40322;SDS011;26030;51.164;17.100;2023-04-10T11:21:35;22.40;;;8.30;;
40322;SDS011;26030;51.164;17.100;2023-04-10T11:26:59;14.60;;;8.30;;
40322;SDS011;26030;51.164;17.100;2023-04-10T11:32:04;20.50;;;8.50;;
40322;SDS011;26030;51.164;17.100;2023-04-10T11:37:08;13.60;;;8.90;;
40322;SDS011;26030;51.164;17.100;2023-04-10T11:42:19;17.20;;;9.60;;
40322;SDS011;26030;51.164;17.100;2023-04-10T11:47:23;17.50;;;9.20;;
40322;SDS011;26030;51.164;17.100;2023-04-10T11:52:27;13.90;;;9.30;;
40322;SDS011;26030;51.164;17.100;2023-04-10T11:57:34;17.80;;;9.30;;
40322;SDS011;26030;51.164;17.100;2023-04-10T12:02:51;19.10;;;9.60;;
40322;SDS011;26030;51.164;17.100;2023-04-10T12:07:56;16.30;;;9.10;;
40322;SDS011;26030;51.164;17.100;2023-04-10T12:13:00;16.70;;;8.80;;
40322;SDS011;26030;51.164;17.100;2023-04-10T12:18:04;19.60;;;9.70;;
40322;SDS011;26030;51.164;17.100;2023-04-10T12:23:10;17.50;;;10.40;;
40322;SDS011;26030;51.164;17.100;2023-04-10T12:28:20;12.80;;;8.80;;
40322;SDS011;26030;51.164;17.100;2023-04-10T12:33:25;12.80;;;9.20;;
40322;SDS011;26030;51.164;17.100;2023-04-10T12:38:41;15.60;;;9.40;;
40322;SDS011;26030;51.164;17.100;2023-04-10T12:43:45;10.90;;;8.00;;
40322;SDS011;26030;51.164;17.100;2023-04-10T12:48:49;11.70;;;8.80;;
40322;SDS011;26030;51.164;17.100;2023-04-10T12:53:53;14.30;;;8.30;;
40322;SDS011;26030;51.164;17.100;2023-04-10T12:59:06;11.10;;;8.80;;
40322;SDS011;26030;51.164;17.100;2023-04-10T13:04:11;12.90;;;8.80;;
40322;SDS011;26030;51.164;17.100;2023-04-10T13:09:15;9.70;;;8.80;;
40322;SDS011;26030;51.164;17.100;2023-04-10T13:14:20;11.80;;;8.40;;
40322;SDS011;26030;51.164;17.100;2023-04-10T13:19:25;9.70;;;8.20;;
40322;SDS011;26030;51.164;17.100;2023-04-10T13:24:30;9.60;;;8.10;;
40322;SDS011;26030;51.164;17.100;2023-04-10T13:29:39;9.90;;;8.30;;
40322;SDS011;26030;51.164;17.100;2023-04-10T13:34:44;12.70;;;8.10;;
40322;SDS011;26030;51.164;17.100;2023-04-10T13:39:48;12.80;;;8.30;;
40322;SDS011;26030;51.164;17.100;2023-04-10T13:44:52;8.60;;;7.70;;
40322;SDS011;26030;51.164;17.100;2023-04-10T13:49:56;7.90;;;7.30;;
40322;SDS011;26030;51.164;17.100;2023-04-10T13:55:00;9.80;;;8.10;;
40322;SDS011;26030;51.164;17.100;2023-04-10T14:00:06;9.40;;;8.20;;
40322;SDS011;26030;51.164;17.100;2023-04-10T14:05:17;9.40;;;7.60;;
40322;SDS011;26030;51.164;17.100;2023-04-10T14:10:22;8.90;;;8.10;;
40322;SDS011;26030;51.164;17.100;2023-04-10T14:15:26;8.50;;;7.40;;
40322;SDS011;26030;51.164;17.100;2023-04-10T14:20:31;10.90;;;8.10;;
40322;SDS011;26030;51.164;17.100;2023-04-10T14:25:35;8.80;;;7.90;;
40322;SDS011;26030;51.164;17.100;2023-04-10T14:30:39;11.20;;;8.00;;
40322;SDS011;26030;51.164;17.100;2023-04-10T14:35:44;9.30;;;8.40;;
40322;SDS011;26030;51.164;17.100;2023-04-10T14:40:48;8.50;;;7.70;;
40322;SDS011;26030;51.164;17.100;2023-04-10T14:45:53;9.50;;;8.50;;
40322;SDS011;26030;51.164;17.100;2023-04-10T14:50:57;10.70;;;7.90;;
40322;SDS011;26030;51.164;17.100;2023-04-10T14:56:09;9.90;;;8.20;;
40322;SDS011;26030;51.164;17.100;2023-04-10T15:01:14;9.30;;;8.40;;
40322;SDS011;26030;51.164;17.100;2023-04-10T15:06:18;8.80;;;7.90;;
40322;SDS011;26030;51.164;17.100;2023-04-10T15:11:22;9.20;;;7.50;;
40322;SDS011;26030;51.164;17.100;2023-04-10T15:16:27;8.60;;;7.80;;
40322;SDS011;26030;51.164;17.100;2023-04-10T15:21:32;8.90;;;7.80;;
40322;SDS011;26030;51.164;17.100;2023-04-10T15:26:42;8.20;;;7.50;;
40322;SDS011;26030;51.164;17.100;2023-04-10T15:31:46;8.80;;;8.00;;
40322;SDS011;26030;51.164;17.100;2023-04-10T15:36:50;8.10;;;7.20;;
40322;SDS011;26030;51.164;17.100;2023-04-10T15:41:55;8.00;;;7.30;;
40322;SDS011;26030;51.164;17.100;2023-04-10T15:47:00;8.50;;;7.70;;
40322;SDS011;26030;51.164;17.100;2023-04-10T15:52:06;13.10;;;8.20;;
40322;SDS011;26030;51.164;17.100;2023-04-10T15:57:11;10.80;;;7.80;;
40322;SDS011;26030;51.164;17.100;2023-04-10T16:02:16;12.10;;;8.40;;
40322;SDS011;26030;51.164;17.100;2023-04-10T16:07:20;12.30;;;9.70;;
40322;SDS011;26030;51.164;17.100;2023-04-10T16:12:25;10.00;;;9.00;;
40322;SDS011;26030;51.164;17.100;2023-04-10T16:17:29;11.50;;;9.00;;
40322;SDS011;26030;51.164;17.100;2023-04-10T16:22:33;14.80;;;9.20;;
40322;SDS011;26030;51.164;17.100;2023-04-10T16:27:38;9.40;;;8.50;;
40322;SDS011;26030;51.164;17.100;2023-04-10T16:32:43;11.60;;;8.50;;
40322;SDS011;26030;51.164;17.100;2023-04-10T16:37:50;12.70;;;8.00;;
40322;SDS011;26030;51.164;17.100;2023-04-10T16:42:57;13.80;;;8.60;;
40322;SDS011;26030;51.164;17.100;2023-04-10T16:48:01;9.20;;;7.90;;
40322;SDS011;26030;51.164;17.100;2023-04-10T16:53:15;10.70;;;8.20;;
40322;SDS011;26030;51.164;17.100;2023-04-10T16:58:21;9.70;;;7.80;;
40322;SDS011;26030;51.164;17.100;2023-04-10T17:03:29;12.20;;;8.10;;
40322;SDS011;26030;51.164;17.100;2023-04-10T17:08:33;8.80;;;7.90;;
40322;SDS011;26030;51.164;17.100;2023-04-10T17:13:39;9.30;;;8.00;;
40322;SDS011;26030;51.164;17.100;2023-04-10T17:18:45;11.90;;;8.70;;
40322;SDS011;26030;51.164;17.100;2023-04-10T17:24:25;20.00;;;8.20;;
40322;SDS011;26030;51.164;17.100;2023-04-10T17:29:37;11.40;;;7.60;;
40322;SDS011;26030;51.164;17.100;2023-04-10T17:34:41;9.70;;;7.20;;
40322;SDS011;26030;51.164;17.100;2023-04-10T17:39:46;14.30;;;8.00;;
40322;SDS011;26030;51.164;17.100;2023-04-10T17:44:51;12.90;;;7.90;;
40322;SDS011;26030;51.164;17.100;2023-04-10T17:49:56;11.60;;;7.70;;
40322;SDS011;26030;51.164;17.100;2023-04-10T17:55:01;16.20;;;8.20;;
40322;SDS011;26030;51.164;17.100;2023-04-10T18:00:07;11.60;;;7.80;;
40322;SDS011;26030;51.164;17.100;2023-04-10T18:05:12;13.00;;;8.50;;
40322;SDS011;26030;51.164;17.100;2023-04-10T18:10:20;11.30;;;8.70;;
40322;SDS011;26030;51.164;17.100;2023-04-10T18:15:31;13.40;;;8.00;;
40322;SDS011;26030;51.164;17.100;2023-04-10T18:20:36;13.00;;;9.00;;
40322;SDS011;26030;51.164;17.100;2023-04-10T18:25:41;12.70;;;8.70;;
40322;SDS011;26030;51.164;17.100;2023-04-10T18:30:54;10.50;;;8.90;;
40322;SDS011;26030;51.164;17.100;2023-04-10T18:35:59;11.80;;;9.70;;
40322;SDS011;26030;51.164;17.100;2023-04-10T18:41:04;10.70;;;9.50;;
40322;SDS011;26030;51.164;17.100;2023-04-10T18:46:09;14.20;;;9.80;;
40322;SDS011;26030;51.164;17.100;2023-04-10T18:51:15;11.20;;;10.00;;
40322;SDS011;26030;51.164;17.100;2023-04-10T18:56:21;10.90;;;9.60;;
40322;SDS011;26030;51.164;17.100;2023-04-10T19:01:25;14.10;;;9.70;;
40322;SDS011;26030;51.164;17.100;2023-04-10T19:06:32;13.50;;;10.10;;
40322;SDS011;26030;51.164;17.100;2023-04-10T19:11:41;18.30;;;9.60;;
40322;SDS011;26030;51.164;17.100;2023-04-10T19:16:48;16.30;;;9.90;;
40322;SDS011;26030;51.164;17.100;2023-04-10T19:21:52;10.70;;;9.70;;
40322;SDS011;26030;51.164;17.100;2023-04-10T19:26:59;12.30;;;11.00;;
40322;SDS011;26030;51.164;17.100;2023-04-10T19:32:05;13.90;;;11.40;;
40322;SDS011;26030;51.164;17.100;2023-04-10T19:37:10;12.20;;;11.00;;
40322;SDS011;26030;51.164;17.100;2023-04-10T19:42:14;16.60;;;11.00;;
40322;SDS011;26030;51.164;17.100;2023-04-10T19:47:18;17.20;;;10.20;;
40322;SDS011;26030;51.164;17.100;2023-04-10T19:52:24;12.00;;;10.40;;
40322;SDS011;26030;51.164;17.100;2023-04-10T19:57:32;10.80;;;9.80;;
40322;SDS011;26030;51.164;17.100;2023-04-10T20:02:41;12.10;;;10.60;;
40322;SDS011;26030;51.164;17.100;2023-04-10T20:07:51;12.60;;;10.20;;
40322;SDS011;26030;51.164;17.100;2023-04-10T20:12:59;19.40;;;11.00;;
40322;SDS011;26030;51.164;17.100;2023-04-10T20:18:05;18.10;;;10.50;;
40322;SDS011;26030;51.164;17.100;2023-04-10T20:23:10;15.10;;;11.80;;
40322;SDS011;26030;51.164;17.100;2023-04-10T20:28:15;11.70;;;10.30;;
40322;SDS011;26030;51.164;17.100;2023-04-10T20:33:20;15.90;;;10.60;;
40322;SDS011;26030;51.164;17.100;2023-04-10T20:38:25;12.50;;;10.40;;
40322;SDS011;26030;51.164;17.100;2023-04-10T20:43:32;12.50;;;10.40;;
40322;SDS011;26030;51.164;17.100;2023-04-10T20:48:37;12.20;;;11.00;;
40322;SDS011;26030;51.164;17.100;2023-04-10T20:53:42;11.70;;;10.40;;
40322;SDS011;26030;51.164;17.100;2023-04-10T20:58:58;12.30;;;10.70;;
40322;SDS011;26030;51.164;17.100;2023-04-10T21:04:03;15.50;;;11.10;;
40322;SDS011;26030;51.164;17.100;2023-04-10T21:09:07;14.20;;;10.90;;
40322;SDS011;26030;51.164;17.100;2023-04-10T21:14:13;11.90;;;10.70;;
40322;SDS011;26030;51.164;17.100;2023-04-10T21:19:17;19.10;;;12.30;;
40322;SDS011;26030;51.164;17.100;2023-04-10T21:24:21;15.80;;;11.40;;
40322;SDS011;26030;51.164;17.100;2023-04-10T21:29:27;21.00;;;13.00;;
40322;SDS011;26030;51.164;17.100;2023-04-10T21:34:32;18.40;;;13.10;;
40322;SDS011;26030;51.164;17.100;2023-04-10T21:39:40;17.80;;;11.60;;
40322;SDS011;26030;51.164;17.100;2023-04-10T21:44:44;17.30;;;13.40;;
40322;SDS011;26030;51.164;17.100;2023-04-10T21:49:50;18.50;;;12.50;;
40322;SDS011;26030;51.164;17.100;2023-04-10T21:54:57;14.80;;;11.80;;
40322;SDS011;26030;51.164;17.100;2023-04-10T22:00:02;14.30;;;11.40;;
40322;SDS011;26030;51.164;17.100;2023-04-10T22:05:07;15.30;;;11.80;;
40322;SDS011;26030;51.164;17.100;2023-04-10T22:10:12;17.50;;;12.10;;
40322;SDS011;26030;51.164;17.100;2023-04-10T22:15:17;15.30;;;12.10;;
40322;SDS011;26030;51.164;17.100;2023-04-10T22:20:22;13.40;;;12.00;;
40322;SDS011;26030;51.164;17.100;2023-04-10T22:25:26;13.90;;;12.30;;
40322;SDS011;26030;51.164;17.100;2023-04-10T22:30:32;14.10;;;11.40;;
40322;SDS011;26030;51.164;17.100;2023-04-10T22:35:37;14.20;;;11.70;;
40322;SDS011;26030;51.164;17.100;2023-04-10T22:40:41;15.10;;;13.20;;
40322;SDS011;26030;51.164;17.100;2023-04-10T22:45:45;16.20;;;13.20;;
40322;SDS011;26030;51.164;17.100;2023-04-10T22:50:50;15.00;;;12.30;;
40322;SDS011;26030;51.164;17.100;2023-04-10T22:55:54;13.20;;;11.90;;
40322;SDS011;26030;51.164;17.100;2023-04-10T23:00:58;14.20;;;12.50;;
40322;SDS011;26030;51.164;17.100;2023-04-10T23:06:02;15.80;;;13.30;;
40322;SDS011;26030;51.164;17.100;2023-04-10T23:11:06;14.70;;;13.30;;
40322;SDS011;26030;51.164;17.100;2023-04-10T23:16:11;15.20;;;13.70;;
40322;SDS011;26030;51.164;17.100;2023-04-10T23:21:15;16.30;;;13.40;;
40322;SDS011;26030;51.164;17.100;2023-04-10T23:26:19;18.50;;;14.60;;
40322;SDS011;26030;51.164;17.100;2023-04-10T23:31:24;22.60;;;14.70;;
40322;SDS011;26030;51.164;17.100;2023-04-10T23:36:28;15.60;;;14.10;;
40322;SDS011;26030;51.164;17.100;2023-04-10T23:41:32;15.90;;;14.10;;
40322;SDS011;26030;51.164;17.100;2023-04-10T23:46:36;14.00;;;12.50;;
40322;SDS011;26030;51.164;17.100;2023-04-10T23:51:40;16.20;;;12.90;;
40322;SDS011;26030;51.164;17.100;2023-04-10T23:56:44;18.20;;;13.70;;
